createdAt,value
2023-05-04T00:01:04.881Z,10.92
2023-05-04T00:03:35.597Z,10.89
2023-05-04T00:06:06.585Z,10.86
2023-05-04T00:08:37.176Z,10.85
2023-05-04T00:11:07.866Z,10.81
2023-05-04T00:13:38.422Z,10.80
2023-05-04T00:16:10.802Z,10.78
2023-05-04T00:18:41.791Z,10.75
2023-05-04T00:21:12.453Z,10.73
2023-05-04T00:23:43.086Z,10.69
2023-05-04T00:26:13.716Z,10.65
2023-05-04T00:28:44.863Z,10.61
2023-05-04T00:31:19.100Z,10.57
2023-05-04T00:33:49.938Z,10.52
2023-05-04T00:36:20.520Z,10.50
2023-05-04T00:38:51.859Z,10.48
2023-05-04T00:41:23.064Z,10.44
2023-05-04T00:43:53.684Z,10.39
2023-05-04T00:46:24.476Z,10.37
2023-05-04T00:48:55.193Z,10.34
2023-05-04T00:51:26.582Z,10.33
2023-05-04T00:53:57.376Z,10.30
2023-05-04T00:56:29.006Z,10.24
2023-05-04T00:58:59.790Z,10.18
2023-05-04T01:01:30.522Z,10.14
2023-05-04T01:04:01.679Z,10.12
2023-05-04T01:06:36.605Z,10.09
2023-05-04T01:09:12.317Z,10.05
2023-05-04T01:11:45.364Z,10.03
2023-05-04T01:14:16.123Z,9.99
2023-05-04T01:16:47.446Z,9.97
2023-05-04T01:19:18.684Z,9.94
2023-05-04T01:21:49.125Z,9.92
2023-05-04T01:24:19.686Z,9.89
2023-05-04T01:26:54.926Z,9.85
2023-05-04T01:29:28.950Z,9.83
2023-05-04T01:32:01.110Z,9.80
2023-05-04T01:34:32.007Z,9.77
2023-05-04T01:37:04.588Z,9.75
2023-05-04T01:39:35.236Z,9.73
2023-05-04T01:42:07.417Z,9.71
2023-05-04T01:44:37.945Z,9.66
2023-05-04T01:47:08.746Z,9.64
2023-05-04T01:49:39.418Z,9.62
2023-05-04T01:52:10.077Z,9.59
2023-05-04T01:54:40.740Z,9.57
2023-05-04T01:57:11.366Z,9.56
2023-05-04T01:59:41.897Z,9.53
2023-05-04T02:02:12.555Z,9.48
2023-05-04T02:04:44.202Z,9.47
2023-05-04T02:07:14.928Z,9.45
2023-05-04T02:09:46.305Z,9.42
2023-05-04T02:12:16.979Z,9.39
2023-05-04T02:14:47.495Z,9.37
2023-05-04T02:17:18.137Z,9.38
2023-05-04T02:19:48.760Z,9.36
2023-05-04T02:22:19.267Z,9.32
2023-05-04T02:24:49.754Z,9.27
2023-05-04T02:27:20.340Z,9.23
2023-05-04T02:29:51.205Z,9.20
2023-05-04T02:32:22.198Z,9.18
2023-05-04T02:34:53.651Z,9.15
2023-05-04T02:37:25.097Z,9.09
2023-05-04T02:39:55.643Z,9.04
2023-05-04T02:42:26.260Z,8.98
2023-05-04T02:44:56.959Z,8.94
2023-05-04T02:47:27.636Z,8.91
2023-05-04T02:49:58.237Z,8.90
2023-05-04T02:52:28.869Z,8.90
2023-05-04T02:54:59.782Z,8.90
2023-05-04T02:57:30.786Z,8.89
2023-05-04T03:00:01.362Z,8.89
2023-05-04T03:02:32.079Z,8.87
2023-05-04T03:05:02.985Z,8.84
2023-05-04T03:07:33.630Z,8.83
2023-05-04T03:10:04.619Z,8.83
2023-05-04T03:12:35.673Z,8.82
2023-05-04T03:15:06.893Z,8.81
2023-05-04T03:17:37.742Z,8.81
2023-05-04T03:20:10.824Z,8.83
2023-05-04T03:22:41.757Z,8.81
2023-05-04T03:25:12.927Z,8.82
2023-05-04T03:27:43.640Z,8.83
2023-05-04T03:30:16.312Z,8.82
2023-05-04T03:32:48.067Z,8.81
2023-05-04T03:35:24.312Z,8.83
2023-05-04T03:37:56.037Z,8.83
2023-05-04T03:40:26.815Z,8.81
2023-05-04T03:42:57.653Z,8.79
2023-05-04T03:45:28.801Z,8.77
2023-05-04T03:48:01.235Z,8.79
2023-05-04T03:50:32.032Z,8.81
2023-05-04T03:53:02.778Z,8.81
2023-05-04T03:55:33.436Z,8.79
2023-05-04T03:58:04.410Z,8.77
2023-05-04T04:00:35.459Z,8.77
2023-05-04T04:03:12.185Z,8.77
2023-05-04T04:05:43.186Z,8.78
2023-05-04T04:08:14.353Z,8.77
2023-05-04T04:10:45.296Z,8.76
2023-05-04T04:13:16.093Z,8.78
2023-05-04T04:15:47.007Z,8.79
2023-05-04T04:18:17.597Z,8.79
2023-05-04T04:20:48.183Z,8.83
2023-05-04T04:23:19.485Z,8.85
2023-05-04T04:25:50.001Z,8.87
2023-05-04T04:28:20.737Z,8.91
2023-05-04T04:30:51.736Z,8.94
2023-05-04T04:33:22.816Z,8.93
2023-05-04T04:35:53.618Z,8.90
2023-05-04T04:38:24.985Z,8.88
2023-05-04T04:40:55.508Z,8.87
2023-05-04T04:43:26.416Z,8.89
2023-05-04T04:45:57.098Z,8.90
2023-05-04T04:48:27.842Z,8.87
2023-05-04T04:50:58.585Z,8.88
2023-05-04T04:53:29.172Z,8.93
2023-05-04T04:55:59.756Z,8.98
2023-05-04T04:58:30.352Z,9.04
2023-05-04T05:01:01.031Z,9.12
2023-05-04T05:03:31.756Z,9.19
2023-05-04T05:06:02.857Z,9.25
2023-05-04T05:08:35.192Z,9.35
2023-05-04T05:11:06.139Z,9.46
2023-05-04T05:13:36.754Z,9.56
2023-05-04T05:16:07.784Z,9.68
2023-05-04T05:18:38.369Z,9.79
2023-05-04T05:21:09.359Z,9.93
2023-05-04T05:23:40.073Z,10.07
2023-05-04T05:26:10.916Z,10.18
2023-05-04T05:28:41.535Z,10.30
2023-05-04T05:31:12.091Z,10.40
2023-05-04T05:33:42.919Z,10.49
2023-05-04T05:36:14.603Z,10.61
2023-05-04T05:38:45.217Z,10.72
2023-05-04T05:41:16.263Z,10.80
2023-05-04T05:43:46.885Z,10.89
2023-05-04T05:46:18.491Z,11.01
2023-05-04T05:48:49.173Z,11.13
2023-05-04T05:51:19.817Z,11.23
2023-05-04T05:53:50.585Z,11.34
2023-05-04T05:56:22.366Z,11.47
2023-05-04T05:58:53.739Z,11.58
2023-05-04T06:01:24.374Z,11.72
2023-05-04T06:03:55.161Z,11.83
2023-05-04T06:06:25.976Z,11.93
2023-05-04T06:08:56.749Z,12.02
2023-05-04T06:11:27.439Z,12.07
2023-05-04T06:13:58.172Z,12.15
2023-05-04T06:16:28.828Z,12.22
2023-05-04T06:18:59.707Z,12.31
2023-05-04T06:21:30.301Z,12.38
2023-05-04T06:24:01.037Z,12.44
2023-05-04T06:26:31.822Z,12.48
2023-05-04T06:29:02.542Z,12.56
2023-05-04T06:31:33.295Z,12.66
2023-05-04T06:34:04.312Z,12.74
2023-05-04T06:36:34.837Z,12.77
2023-05-04T06:39:05.951Z,12.78
2023-05-04T06:41:37.214Z,12.79
2023-05-04T06:44:08.114Z,12.88
2023-05-04T06:46:38.721Z,13.00
2023-05-04T06:49:09.434Z,13.07
2023-05-04T06:51:40.215Z,13.14
2023-05-04T06:54:11.409Z,13.24
2023-05-04T06:56:42.378Z,13.35
2023-05-04T06:59:13.384Z,13.46
2023-05-04T07:01:45.713Z,13.53
2023-05-04T07:04:17.526Z,13.54
2023-05-04T07:06:48.352Z,13.58
2023-05-04T07:09:20.127Z,13.63
2023-05-04T07:11:50.857Z,13.71
2023-05-04T07:14:22.428Z,13.80
2023-05-04T07:16:53.104Z,13.90
2023-05-04T07:19:23.979Z,14.02
2023-05-04T07:21:54.460Z,14.14
2023-05-04T07:24:25.068Z,14.19
2023-05-04T07:26:55.671Z,14.27
2023-05-04T07:29:26.621Z,14.35
2023-05-04T07:31:57.278Z,14.46
2023-05-04T07:34:41.798Z,14.57
2023-05-04T07:37:16.085Z,14.73
2023-05-04T07:39:46.904Z,14.87
2023-05-04T07:42:17.489Z,15.02
2023-05-04T07:44:48.104Z,15.15
2023-05-04T07:47:18.665Z,15.29
2023-05-04T07:49:49.240Z,15.34
2023-05-04T07:52:19.859Z,15.39
2023-05-04T07:54:52.583Z,15.48
2023-05-04T07:57:23.337Z,15.55
2023-05-04T07:59:56.389Z,15.64
2023-05-04T08:02:27.137Z,15.80
2023-05-04T08:04:57.891Z,15.93
2023-05-04T08:07:28.498Z,16.00
2023-05-04T08:09:59.382Z,16.01
2023-05-04T08:12:30.214Z,16.02
2023-05-04T08:15:02.762Z,16.09
2023-05-04T08:17:35.018Z,16.26
2023-05-04T08:20:06.264Z,16.44
2023-05-04T08:22:37.010Z,16.55
2023-05-04T08:25:08.692Z,16.67
2023-05-04T08:27:39.352Z,16.75
2023-05-04T08:30:10.891Z,16.79
2023-05-04T08:32:41.565Z,16.87
2023-05-04T08:35:12.281Z,16.88
2023-05-04T08:37:43.024Z,16.87
2023-05-04T08:40:14.417Z,16.86
2023-05-04T08:42:48.156Z,16.79
2023-05-04T08:45:18.758Z,16.73
2023-05-04T08:47:49.482Z,16.66
2023-05-04T08:50:20.303Z,16.54
2023-05-04T08:52:52.407Z,16.46
2023-05-04T08:55:23.206Z,16.38
2023-05-04T08:57:54.407Z,16.31
2023-05-04T09:00:25.212Z,16.33
2023-05-04T09:02:56.606Z,16.47
2023-05-04T09:05:27.255Z,16.69
2023-05-04T09:07:58.080Z,16.85
2023-05-04T09:10:29.804Z,17.04
2023-05-04T09:13:00.611Z,17.27
2023-05-04T09:15:31.722Z,17.46
2023-05-04T09:18:05.287Z,17.64
2023-05-04T09:20:46.996Z,17.84
2023-05-04T09:23:18.347Z,18.00
2023-05-04T09:25:50.355Z,18.15
2023-05-04T09:28:21.965Z,18.28
2023-05-04T09:31:00.930Z,18.37
2023-05-04T09:33:32.112Z,18.47
2023-05-04T09:36:14.408Z,18.47
2023-05-04T09:38:45.393Z,18.26
2023-05-04T09:41:16.193Z,18.03
2023-05-04T09:43:46.851Z,17.77
2023-05-04T09:46:20.576Z,17.51
2023-05-04T09:48:55.242Z,17.36
2023-05-04T09:51:27.535Z,17.45
2023-05-04T09:54:00.691Z,17.62
2023-05-04T09:56:38.856Z,17.83
2023-05-04T09:59:10.913Z,18.07
2023-05-04T10:01:44.711Z,18.30
2023-05-04T10:04:15.716Z,18.49
2023-05-04T10:06:47.153Z,18.53
2023-05-04T10:09:18.129Z,18.36
2023-05-04T10:11:49.552Z,18.18
2023-05-04T10:14:20.185Z,18.08
2023-05-04T10:16:55.371Z,18.16
2023-05-04T10:19:40.906Z,18.29
2023-05-04T10:22:22.143Z,18.45
2023-05-04T10:25:07.810Z,18.61
2023-05-04T10:27:43.478Z,18.70
2023-05-04T10:30:16.796Z,18.84
2023-05-04T10:32:47.627Z,19.05
2023-05-04T10:35:19.904Z,19.25
2023-05-04T10:37:54.693Z,19.41
2023-05-04T10:40:36.271Z,19.59
2023-05-04T10:43:07.648Z,19.77
2023-05-04T10:45:39.572Z,19.88
2023-05-04T10:48:10.729Z,19.86
2023-05-04T10:50:45.048Z,19.77
2023-05-04T10:53:16.504Z,19.69
2023-05-04T10:55:48.715Z,19.75
2023-05-04T10:58:28.560Z,19.91
2023-05-04T11:00:59.232Z,20.07
2023-05-04T11:03:39.380Z,20.17
2023-05-04T11:06:19.586Z,20.21
2023-05-04T11:09:01.494Z,20.29
2023-05-04T11:11:37.240Z,20.42
2023-05-04T11:14:08.142Z,20.50
2023-05-04T11:16:38.752Z,20.58
2023-05-04T11:19:09.698Z,20.65
2023-05-04T11:21:41.616Z,20.68
2023-05-04T11:24:12.235Z,20.67
2023-05-04T11:26:49.822Z,20.65
2023-05-04T11:29:20.525Z,20.59
2023-05-04T11:31:57.472Z,20.43
2023-05-04T11:34:28.024Z,20.32
2023-05-04T11:36:58.737Z,20.33
2023-05-04T11:39:33.570Z,20.37
2023-05-04T11:42:09.050Z,20.35
2023-05-04T11:44:40.916Z,20.38
2023-05-04T11:47:12.223Z,20.41
2023-05-04T11:49:44.044Z,20.41
2023-05-04T11:52:14.689Z,20.43
2023-05-04T11:54:55.929Z,20.50
2023-05-04T11:57:26.653Z,20.57
2023-05-04T11:59:57.236Z,20.62
2023-05-04T12:02:28.129Z,20.68
2023-05-04T12:04:59.033Z,20.64
2023-05-04T12:07:30.357Z,20.53
2023-05-04T12:10:01.018Z,20.40
2023-05-04T12:12:37.141Z,20.29
2023-05-04T12:15:08.905Z,20.20
2023-05-04T12:17:43.210Z,20.12
2023-05-04T12:20:23.691Z,20.12
2023-05-04T12:22:54.298Z,20.19
2023-05-04T12:25:25.214Z,20.22
2023-05-04T12:27:55.891Z,20.17
2023-05-04T12:30:26.578Z,20.00
2023-05-04T12:32:57.165Z,19.87
2023-05-04T12:35:28.104Z,19.80
2023-05-04T12:37:59.110Z,19.67
2023-05-04T12:40:29.831Z,19.53
2023-05-04T12:43:00.542Z,19.41
2023-05-04T12:45:31.419Z,19.33
2023-05-04T12:48:02.477Z,19.25
2023-05-04T12:50:33.106Z,19.13
2023-05-04T12:53:04.467Z,19.01
2023-05-04T12:55:35.134Z,18.98
2023-05-04T12:58:06.125Z,18.96
2023-05-04T13:00:37.931Z,18.93
2023-05-04T13:03:08.821Z,18.88
2023-05-04T13:05:39.812Z,18.90
2023-05-04T13:08:10.805Z,18.96
2023-05-04T13:10:41.483Z,19.00
2023-05-04T13:13:13.241Z,18.98
2023-05-04T13:15:44.655Z,18.96
2023-05-04T13:18:15.352Z,18.93
2023-05-04T13:20:45.966Z,18.91
2023-05-04T13:23:16.756Z,18.87
2023-05-04T13:25:47.512Z,18.84
2023-05-04T13:28:18.604Z,18.85
2023-05-04T13:30:49.600Z,18.83
2023-05-04T13:33:29.545Z,18.73
2023-05-04T13:36:02.253Z,18.63
2023-05-04T13:38:33.482Z,18.51
2023-05-04T13:41:04.106Z,18.42
2023-05-04T13:43:34.855Z,18.37
2023-05-04T13:46:05.979Z,18.33
2023-05-04T13:48:36.821Z,18.30
2023-05-04T13:51:07.476Z,18.30
2023-05-04T13:53:38.108Z,18.31
2023-05-04T13:56:09.182Z,18.33
2023-05-04T13:58:39.834Z,18.36
2023-05-04T14:01:10.530Z,18.38
2023-05-04T14:03:41.274Z,18.37
2023-05-04T14:06:11.908Z,18.34
2023-05-04T14:08:42.626Z,18.30
2023-05-04T14:11:13.837Z,18.28
2023-05-04T14:13:45.846Z,18.27
2023-05-04T14:16:16.656Z,18.28
2023-05-04T14:18:48.057Z,18.30
2023-05-04T14:21:18.799Z,18.33
2023-05-04T14:23:49.428Z,18.32
2023-05-04T14:26:20.162Z,18.31
2023-05-04T14:28:50.908Z,18.29
2023-05-04T14:31:21.656Z,18.28
2023-05-04T14:33:53.306Z,18.26
2023-05-04T14:36:37.183Z,18.24
2023-05-04T14:39:08.856Z,18.23
2023-05-04T14:41:39.647Z,18.20
2023-05-04T14:44:10.455Z,18.18
2023-05-04T14:46:41.043Z,18.14
2023-05-04T14:49:16.287Z,18.04
2023-05-04T14:51:55.565Z,17.96
2023-05-04T14:54:26.405Z,17.89
2023-05-04T14:56:57.081Z,17.84
2023-05-04T14:59:27.902Z,17.78
2023-05-04T15:01:58.816Z,17.74
2023-05-04T15:04:29.497Z,17.73
2023-05-04T15:07:00.964Z,17.70
2023-05-04T15:09:31.580Z,17.70
2023-05-04T15:12:03.691Z,17.70
2023-05-04T15:14:34.358Z,17.69
2023-05-04T15:17:05.505Z,17.66
2023-05-04T15:19:37.169Z,17.62
2023-05-04T15:22:07.974Z,17.58
2023-05-04T15:24:38.591Z,17.55
2023-05-04T15:27:09.286Z,17.54
2023-05-04T15:29:39.916Z,17.50
2023-05-04T15:32:10.546Z,17.46
2023-05-04T15:34:42.533Z,17.44
2023-05-04T15:37:16.749Z,17.41
2023-05-04T15:39:47.330Z,17.38
2023-05-04T15:42:17.913Z,17.36
2023-05-04T15:44:48.519Z,17.36
2023-05-04T15:47:19.212Z,17.36
2023-05-04T15:49:49.964Z,17.35
2023-05-04T15:52:20.697Z,17.32
2023-05-04T15:54:51.270Z,17.29
2023-05-04T15:57:21.906Z,17.24
2023-05-04T15:59:52.544Z,17.20
2023-05-04T16:02:23.173Z,17.15
2023-05-04T16:04:53.697Z,17.11
2023-05-04T16:07:24.595Z,17.09
2023-05-04T16:09:55.153Z,17.07
2023-05-04T16:12:25.936Z,17.05
2023-05-04T16:14:56.744Z,17.03
2023-05-04T16:17:29.300Z,17.00
2023-05-04T16:20:00.087Z,16.98
2023-05-04T16:22:30.805Z,16.95
2023-05-04T16:25:02.076Z,16.93
2023-05-04T16:27:32.932Z,16.90
2023-05-04T16:30:03.699Z,16.87
2023-05-04T16:32:34.322Z,16.83
2023-05-04T16:35:05.214Z,16.80
2023-05-04T16:37:38.248Z,16.78
2023-05-04T16:40:14.350Z,16.76
2023-05-04T16:42:45.285Z,16.73
2023-05-04T16:45:15.816Z,16.70
2023-05-04T16:47:46.432Z,16.66
2023-05-04T16:50:17.219Z,16.63
2023-05-04T16:52:47.985Z,16.60
2023-05-04T16:55:18.590Z,16.57
2023-05-04T16:57:49.620Z,16.54
2023-05-04T17:00:20.803Z,16.49
2023-05-04T17:02:51.601Z,16.46
2023-05-04T17:05:22.288Z,16.42
2023-05-04T17:07:53.052Z,16.39
2023-05-04T17:10:24.846Z,16.35
2023-05-04T17:12:55.731Z,16.31
2023-05-04T17:15:26.363Z,16.25
2023-05-04T17:17:57.161Z,16.20
2023-05-04T17:20:30.517Z,16.15
2023-05-04T17:23:01.211Z,16.10
2023-05-04T17:25:32.003Z,16.03
2023-05-04T17:28:03.367Z,15.98
2023-05-04T17:30:35.766Z,15.95
2023-05-04T17:33:06.514Z,15.91
2023-05-04T17:35:37.018Z,15.88
2023-05-04T17:38:07.665Z,15.86
2023-05-04T17:40:38.237Z,15.86
2023-05-04T17:43:08.852Z,15.84
2023-05-04T17:45:39.416Z,15.82
2023-05-04T17:48:10.162Z,15.81
2023-05-04T17:50:41.407Z,15.78
2023-05-04T17:53:12.405Z,15.74
2023-05-04T17:55:43.094Z,15.71
2023-05-04T17:58:13.922Z,15.69
2023-05-04T18:00:44.518Z,15.65
2023-05-04T18:03:15.293Z,15.61
2023-05-04T18:05:46.514Z,15.57
2023-05-04T18:08:17.219Z,15.54
2023-05-04T18:10:48.684Z,15.51
2023-05-04T18:13:19.382Z,15.48
2023-05-04T18:15:50.706Z,15.46
2023-05-04T18:18:21.561Z,15.45
2023-05-04T18:20:52.500Z,15.42
2023-05-04T18:23:23.101Z,15.40
2023-05-04T18:25:53.661Z,15.37
2023-05-04T18:28:24.389Z,15.36
2023-05-04T18:30:55.045Z,15.33
2023-05-04T18:33:25.743Z,15.30
2023-05-04T18:35:56.317Z,15.28
2023-05-04T18:38:27.596Z,15.26
2023-05-04T18:40:58.122Z,15.24
2023-05-04T18:43:28.702Z,15.23
2023-05-04T18:45:59.487Z,15.22
2023-05-04T18:48:30.144Z,15.20
2023-05-04T18:51:00.969Z,15.17
2023-05-04T18:53:31.948Z,15.15
2023-05-04T18:56:03.977Z,15.12
2023-05-04T18:58:34.878Z,15.09
2023-05-04T19:01:05.860Z,15.06
2023-05-04T19:03:36.895Z,15.04
2023-05-04T19:06:07.917Z,15.01
2023-05-04T19:08:38.557Z,14.98
2023-05-04T19:11:09.392Z,14.95
2023-05-04T19:13:39.987Z,14.93
2023-05-04T19:16:13.991Z,14.91
2023-05-04T19:18:45.871Z,14.89
2023-05-04T19:21:16.798Z,14.85
2023-05-04T19:23:47.424Z,14.82
2023-05-04T19:26:17.996Z,14.80
2023-05-04T19:28:48.681Z,14.77
2023-05-04T19:31:19.265Z,14.74
2023-05-04T19:33:50.059Z,14.72
2023-05-04T19:36:20.759Z,14.70
2023-05-04T19:38:51.462Z,14.68
2023-05-04T19:41:22.288Z,14.66
2023-05-04T19:43:52.897Z,14.63
2023-05-04T19:46:23.494Z,14.60
2023-05-04T19:48:54.388Z,14.59
2023-05-04T19:51:24.960Z,14.57
2023-05-04T19:53:55.642Z,14.55
2023-05-04T19:56:26.219Z,14.52
2023-05-04T19:58:56.863Z,14.50
2023-05-04T20:01:27.424Z,14.47
2023-05-04T20:03:58.071Z,14.42
2023-05-04T20:06:28.987Z,14.38
2023-05-04T20:08:59.692Z,14.36
2023-05-04T20:11:30.324Z,14.33
2023-05-04T20:14:01.372Z,14.30
2023-05-04T20:16:32.087Z,14.29
2023-05-04T20:19:04.186Z,14.27
2023-05-04T20:21:34.940Z,14.25
2023-05-04T20:24:05.844Z,14.24
2023-05-04T20:26:36.374Z,14.22
2023-05-04T20:29:07.290Z,14.21
2023-05-04T20:31:38.022Z,14.20
2023-05-04T20:34:08.653Z,14.16
2023-05-04T20:36:39.277Z,14.13
2023-05-04T20:39:10.324Z,14.10
2023-05-04T20:41:41.158Z,14.06
2023-05-04T20:44:11.882Z,14.03
2023-05-04T20:46:42.476Z,13.98
2023-05-04T20:49:13.578Z,13.93
2023-05-04T20:51:44.124Z,13.88
2023-05-04T20:54:15.358Z,13.83
2023-05-04T20:56:46.030Z,13.79
2023-05-04T20:59:17.120Z,13.75
2023-05-04T21:01:48.072Z,13.72
2023-05-04T21:04:18.832Z,13.73
2023-05-04T21:06:50.266Z,13.73
2023-05-04T21:09:21.679Z,13.73
2023-05-04T21:11:52.695Z,13.73
2023-05-04T21:14:23.838Z,13.71
2023-05-04T21:16:54.496Z,13.70
2023-05-04T21:19:25.251Z,13.69
2023-05-04T21:21:56.398Z,13.67
2023-05-04T21:24:27.131Z,13.67
2023-05-04T21:26:57.765Z,13.67
2023-05-04T21:29:28.578Z,13.67
2023-05-04T21:31:59.257Z,13.65
2023-05-04T21:34:33.722Z,13.63
2023-05-04T21:37:07.861Z,13.58
2023-05-04T21:39:38.427Z,13.51
2023-05-04T21:42:08.967Z,13.49
2023-05-04T21:44:39.537Z,13.49
2023-05-04T21:47:10.049Z,13.48
2023-05-04T21:49:40.986Z,13.50
2023-05-04T21:52:11.588Z,13.49
2023-05-04T21:54:42.276Z,13.48
2023-05-04T21:57:12.957Z,13.46
2023-05-04T21:59:43.591Z,13.45
2023-05-04T22:02:14.191Z,13.44
2023-05-04T22:04:45.085Z,13.43
2023-05-04T22:07:15.721Z,13.43
2023-05-04T22:09:46.308Z,13.41
2023-05-04T22:12:16.928Z,13.41
2023-05-04T22:14:47.514Z,13.39
2023-05-04T22:17:18.086Z,13.39
2023-05-04T22:19:48.875Z,13.38
2023-05-04T22:22:19.305Z,13.34
2023-05-04T22:24:50.008Z,13.29
2023-05-04T22:27:20.722Z,13.27
2023-05-04T22:29:51.484Z,13.26
2023-05-04T22:32:22.183Z,13.26
2023-05-04T22:34:52.886Z,13.27
2023-05-04T22:37:23.486Z,13.26
2023-05-04T22:39:54.089Z,13.25
2023-05-04T22:42:24.774Z,13.25
2023-05-04T22:44:55.383Z,13.23
2023-05-04T22:47:25.975Z,13.18
2023-05-04T22:49:57.103Z,13.16
2023-05-04T22:52:27.922Z,13.14
2023-05-04T22:54:58.598Z,13.13
2023-05-04T22:57:29.573Z,13.12
2023-05-04T23:00:00.245Z,13.11
2023-05-04T23:02:30.845Z,13.11
2023-05-04T23:05:01.792Z,13.07
2023-05-04T23:07:32.304Z,13.02
2023-05-04T23:10:03.393Z,12.98
2023-05-04T23:12:34.074Z,12.94
2023-05-04T23:15:05.107Z,12.91
2023-05-04T23:17:38.446Z,12.89
2023-05-04T23:20:11.616Z,12.88
2023-05-04T23:22:42.093Z,12.87
2023-05-04T23:25:12.752Z,12.88
2023-05-04T23:27:43.370Z,12.88
2023-05-04T23:30:14.287Z,12.87
2023-05-04T23:32:44.932Z,12.87
2023-05-04T23:35:15.574Z,12.87
2023-05-04T23:37:46.129Z,12.85
2023-05-04T23:40:16.770Z,12.84
2023-05-04T23:42:49.610Z,12.81
2023-05-04T23:45:20.548Z,12.79
2023-05-04T23:47:51.221Z,12.79
2023-05-04T23:50:22.110Z,12.76
2023-05-04T23:52:52.689Z,12.74
2023-05-04T23:55:23.476Z,12.73
2023-05-04T23:57:54.003Z,12.71
